sensor_id;sensor_type;location;lat;lon;timestamp;pressure;altitude;pressure_sealevel;temperature;humidity
77381;BME280;66439;50.106;10.996;2024-03-02T00:00:08;97623.47;;;7.85;66.20
77381;BME280;66439;50.106;10.996;2024-03-02T00:02:43;97620.76;;;7.81;66.21
77381;BME280;66439;50.106;10.996;2024-03-02T00:04:46;97618.60;;;7.77;66.22
77381;BME280;66439;50.106;10.996;2024-03-02T00:06:53;97618.59;;;7.74;66.35
77381;BME280;66439;50.106;10.996;2024-03-02T00:08:58;97619.07;;;7.73;66.46
77381;BME280;66439;50.106;10.996;2024-03-02T00:11:02;97616.98;;;7.70;66.36
77381;BME280;66439;50.106;10.996;2024-03-02T00:13:06;97616.95;;;7.68;66.44
77381;BME280;66439;50.106;10.996;2024-03-02T00:17:33;97614.10;;;7.63;66.61
77381;BME280;66439;50.106;10.996;2024-03-02T00:19:38;97613.78;;;7.64;66.53
77381;BME280;66439;50.106;10.996;2024-03-02T00:21:42;97614.33;;;7.65;66.51
77381;BME280;66439;50.106;10.996;2024-03-02T00:23:45;97618.25;;;7.67;66.86
77381;BME280;66439;50.106;10.996;2024-03-02T00:25:50;97622.58;;;7.69;66.91
77381;BME280;66439;50.106;10.996;2024-03-02T00:27:55;97619.05;;;7.71;66.76
77381;BME280;66439;50.106;10.996;2024-03-02T00:30:01;97617.84;;;7.72;66.84
77381;BME280;66439;50.106;10.996;2024-03-02T00:32:12;97620.21;;;7.73;66.90
77381;BME280;66439;50.106;10.996;2024-03-02T00:34:17;97621.96;;;7.74;66.76
77381;BME280;66439;50.106;10.996;2024-03-02T00:36:25;97622.54;;;7.74;66.74
77381;BME280;66439;50.106;10.996;2024-03-02T00:38:30;97621.39;;;7.73;66.83
77381;BME280;66439;50.106;10.996;2024-03-02T00:40:33;97617.96;;;7.72;66.80
77381;BME280;66439;50.106;10.996;2024-03-02T00:42:36;97617.46;;;7.72;66.80
77381;BME280;66439;50.106;10.996;2024-03-02T00:44:38;97614.21;;;7.71;66.99
77381;BME280;66439;50.106;10.996;2024-03-02T00:46:43;97616.52;;;7.71;66.77
77381;BME280;66439;50.106;10.996;2024-03-02T00:48:54;97615.39;;;7.70;66.95
77381;BME280;66439;50.106;10.996;2024-03-02T00:50:57;97613.48;;;7.69;66.92
77381;BME280;66439;50.106;10.996;2024-03-02T00:53:01;97616.34;;;7.69;66.92
77381;BME280;66439;50.106;10.996;2024-03-02T00:55:04;97617.96;;;7.68;66.90
77381;BME280;66439;50.106;10.996;2024-03-02T00:57:10;97618.31;;;7.70;66.85
77381;BME280;66439;50.106;10.996;2024-03-02T00:59:14;97618.52;;;7.72;66.70
77381;BME280;66439;50.106;10.996;2024-03-02T01:01:17;97619.85;;;7.74;66.89
77381;BME280;66439;50.106;10.996;2024-03-02T01:03:20;97624.64;;;7.75;66.95
77381;BME280;66439;50.106;10.996;2024-03-02T01:05:23;97626.77;;;7.75;66.97
77381;BME280;66439;50.106;10.996;2024-03-02T01:07:26;97625.70;;;7.75;66.80
77381;BME280;66439;50.106;10.996;2024-03-02T01:09:28;97627.38;;;7.75;67.06
77381;BME280;66439;50.106;10.996;2024-03-02T01:11:31;97627.66;;;7.75;66.77
77381;BME280;66439;50.106;10.996;2024-03-02T01:13:34;97628.31;;;7.74;66.89
77381;BME280;66439;50.106;10.996;2024-03-02T01:15:36;97627.48;;;7.72;66.83
77381;BME280;66439;50.106;10.996;2024-03-02T01:17:39;97628.04;;;7.71;66.84
77381;BME280;66439;50.106;10.996;2024-03-02T01:19:42;97627.41;;;7.69;66.83
77381;BME280;66439;50.106;10.996;2024-03-02T01:21:44;97626.46;;;7.67;66.75
77381;BME280;66439;50.106;10.996;2024-03-02T01:23:47;97632.55;;;7.65;66.92
77381;BME280;66439;50.106;10.996;2024-03-02T01:25:50;97631.35;;;7.63;66.86
77381;BME280;66439;50.106;10.996;2024-03-02T01:27:54;97631.02;;;7.61;66.96
77381;BME280;66439;50.106;10.996;2024-03-02T01:29:56;97627.94;;;7.59;67.01
77381;BME280;66439;50.106;10.996;2024-03-02T01:31:59;97630.05;;;7.58;67.08
77381;BME280;66439;50.106;10.996;2024-03-02T01:34:02;97630.02;;;7.59;67.02
77381;BME280;66439;50.106;10.996;2024-03-02T01:36:05;97627.15;;;7.61;67.12
77381;BME280;66439;50.106;10.996;2024-03-02T01:38:08;97626.96;;;7.64;67.07
77381;BME280;66439;50.106;10.996;2024-03-02T01:40:11;97626.09;;;7.65;67.13
77381;BME280;66439;50.106;10.996;2024-03-02T01:42:14;97626.17;;;7.66;67.29
77381;BME280;66439;50.106;10.996;2024-03-02T01:44:17;97631.06;;;7.68;67.16
77381;BME280;66439;50.106;10.996;2024-03-02T01:46:19;97627.84;;;7.68;67.11
77381;BME280;66439;50.106;10.996;2024-03-02T01:48:22;97630.19;;;7.69;67.00
77381;BME280;66439;50.106;10.996;2024-03-02T01:50:26;97631.29;;;7.70;67.10
77381;BME280;66439;50.106;10.996;2024-03-02T01:52:29;97632.89;;;7.70;67.14
77381;BME280;66439;50.106;10.996;2024-03-02T01:54:32;97633.00;;;7.71;66.99
77381;BME280;66439;50.106;10.996;2024-03-02T01:56:35;97632.54;;;7.69;66.97
77381;BME280;66439;50.106;10.996;2024-03-02T01:58:38;97636.35;;;7.68;67.06
77381;BME280;66439;50.106;10.996;2024-03-02T02:00:40;97636.39;;;7.67;67.06
77381;BME280;66439;50.106;10.996;2024-03-02T02:02:44;97635.60;;;7.65;66.95
77381;BME280;66439;50.106;10.996;2024-03-02T02:04:46;97635.54;;;7.63;67.10
77381;BME280;66439;50.106;10.996;2024-03-02T02:06:50;97638.73;;;7.60;67.15
77381;BME280;66439;50.106;10.996;2024-03-02T02:08:53;97643.04;;;7.58;67.01
77381;BME280;66439;50.106;10.996;2024-03-02T02:10:55;97641.48;;;7.58;67.23
77381;BME280;66439;50.106;10.996;2024-03-02T02:12:58;97644.27;;;7.60;67.17
77381;BME280;66439;50.106;10.996;2024-03-02T02:15:01;97641.44;;;7.61;67.25
77381;BME280;66439;50.106;10.996;2024-03-02T02:17:03;97640.14;;;7.62;67.27
77381;BME280;66439;50.106;10.996;2024-03-02T02:19:07;97639.37;;;7.62;67.33
77381;BME280;66439;50.106;10.996;2024-03-02T02:21:10;97638.06;;;7.63;67.40
77381;BME280;66439;50.106;10.996;2024-03-02T02:23:13;97637.83;;;7.63;67.46
77381;BME280;66439;50.106;10.996;2024-03-02T02:25:16;97637.17;;;7.64;67.28
77381;BME280;66439;50.106;10.996;2024-03-02T02:27:18;97633.84;;;7.63;67.44
77381;BME280;66439;50.106;10.996;2024-03-02T02:29:21;97634.24;;;7.62;67.35
77381;BME280;66439;50.106;10.996;2024-03-02T02:31:25;97632.37;;;7.62;67.43
77381;BME280;66439;50.106;10.996;2024-03-02T02:33:28;97633.95;;;7.62;67.42
77381;BME280;66439;50.106;10.996;2024-03-02T02:35:30;97632.95;;;7.61;67.45
77381;BME280;66439;50.106;10.996;2024-03-02T02:37:33;97632.70;;;7.60;67.47
77381;BME280;66439;50.106;10.996;2024-03-02T02:39:36;97629.33;;;7.59;67.48
77381;BME280;66439;50.106;10.996;2024-03-02T02:41:39;97631.17;;;7.57;67.57
77381;BME280;66439;50.106;10.996;2024-03-02T02:43:41;97628.90;;;7.57;67.49
77381;BME280;66439;50.106;10.996;2024-03-02T02:45:44;97625.27;;;7.59;67.66
77381;BME280;66439;50.106;10.996;2024-03-02T02:47:47;97624.42;;;7.62;67.53
77381;BME280;66439;50.106;10.996;2024-03-02T02:49:50;97623.45;;;7.65;67.59
77381;BME280;66439;50.106;10.996;2024-03-02T02:51:52;97626.30;;;7.68;67.60
77381;BME280;66439;50.106;10.996;2024-03-02T02:53:55;97623.35;;;7.69;67.75
77381;BME280;66439;50.106;10.996;2024-03-02T02:55:57;97622.55;;;7.70;67.51
77381;BME280;66439;50.106;10.996;2024-03-02T02:58:00;97626.70;;;7.70;67.63
77381;BME280;66439;50.106;10.996;2024-03-02T03:00:08;97625.88;;;7.71;67.64
77381;BME280;66439;50.106;10.996;2024-03-02T03:02:16;97622.30;;;7.71;67.54
77381;BME280;66439;50.106;10.996;2024-03-02T03:04:19;97622.92;;;7.71;67.52
77381;BME280;66439;50.106;10.996;2024-03-02T03:06:22;97621.48;;;7.70;67.51
77381;BME280;66439;50.106;10.996;2024-03-02T03:08:24;97623.59;;;7.68;67.62
77381;BME280;66439;50.106;10.996;2024-03-02T03:10:27;97622.84;;;7.67;67.59
77381;BME280;66439;50.106;10.996;2024-03-02T03:12:30;97622.92;;;7.67;67.57
77381;BME280;66439;50.106;10.996;2024-03-02T03:14:36;97624.88;;;7.67;67.61
77381;BME280;66439;50.106;10.996;2024-03-02T03:16:38;97624.79;;;7.66;67.68
77381;BME280;66439;50.106;10.996;2024-03-02T03:18:41;97626.41;;;7.66;67.65
77381;BME280;66439;50.106;10.996;2024-03-02T03:20:44;97623.41;;;7.67;67.73
77381;BME280;66439;50.106;10.996;2024-03-02T03:22:46;97622.62;;;7.69;67.63
77381;BME280;66439;50.106;10.996;2024-03-02T03:24:49;97617.70;;;7.72;67.73
77381;BME280;66439;50.106;10.996;2024-03-02T03:26:52;97616.83;;;7.73;67.67
77381;BME280;66439;50.106;10.996;2024-03-02T03:28:55;97616.39;;;7.75;67.67
77381;BME280;66439;50.106;10.996;2024-03-02T03:30:57;97619.20;;;7.75;67.78
77381;BME280;66439;50.106;10.996;2024-03-02T03:33:00;97617.81;;;7.75;67.56
77381;BME280;66439;50.106;10.996;2024-03-02T03:35:03;97618.23;;;7.74;67.50
77381;BME280;66439;50.106;10.996;2024-03-02T03:37:06;97612.44;;;7.75;67.75
77381;BME280;66439;50.106;10.996;2024-03-02T03:39:09;97613.00;;;7.77;67.73
77381;BME280;66439;50.106;10.996;2024-03-02T03:41:11;97608.85;;;7.78;67.73
77381;BME280;66439;50.106;10.996;2024-03-02T03:43:14;97605.05;;;7.77;67.70
77381;BME280;66439;50.106;10.996;2024-03-02T03:45:17;97605.80;;;7.74;67.59
77381;BME280;66439;50.106;10.996;2024-03-02T03:47:20;97604.55;;;7.71;67.62
77381;BME280;66439;50.106;10.996;2024-03-02T03:49:23;97604.60;;;7.69;67.80
77381;BME280;66439;50.106;10.996;2024-03-02T03:51:25;97601.36;;;7.68;67.83
77381;BME280;66439;50.106;10.996;2024-03-02T03:53:28;97602.77;;;7.70;67.72
77381;BME280;66439;50.106;10.996;2024-03-02T03:55:30;97601.55;;;7.71;67.74
77381;BME280;66439;50.106;10.996;2024-03-02T03:57:33;97604.63;;;7.73;67.90
77381;BME280;66439;50.106;10.996;2024-03-02T03:59:36;97601.70;;;7.73;67.88
77381;BME280;66439;50.106;10.996;2024-03-02T04:01:39;97602.50;;;7.76;68.10
77381;BME280;66439;50.106;10.996;2024-03-02T04:03:42;97599.90;;;7.77;68.07
77381;BME280;66439;50.106;10.996;2024-03-02T04:05:45;97603.77;;;7.77;67.99
77381;BME280;66439;50.106;10.996;2024-03-02T04:07:47;97604.38;;;7.78;67.97
77381;BME280;66439;50.106;10.996;2024-03-02T04:09:51;97598.67;;;7.79;67.90
77381;BME280;66439;50.106;10.996;2024-03-02T04:11:54;97606.29;;;7.78;67.89
77381;BME280;66439;50.106;10.996;2024-03-02T04:13:57;97603.21;;;7.76;67.96
77381;BME280;66439;50.106;10.996;2024-03-02T04:16:00;97610.65;;;7.74;67.96
77381;BME280;66439;50.106;10.996;2024-03-02T04:18:03;97610.57;;;7.72;67.89
77381;BME280;66439;50.106;10.996;2024-03-02T04:20:07;97608.75;;;7.70;67.88
77381;BME280;66439;50.106;10.996;2024-03-02T04:22:10;97609.61;;;7.67;67.88
77381;BME280;66439;50.106;10.996;2024-03-02T04:24:22;97610.63;;;7.65;67.86
77381;BME280;66439;50.106;10.996;2024-03-02T04:26:26;97609.17;;;7.62;67.84
77381;BME280;66439;50.106;10.996;2024-03-02T04:28:29;97611.74;;;7.63;67.89
77381;BME280;66439;50.106;10.996;2024-03-02T04:30:32;97613.58;;;7.64;67.89
77381;BME280;66439;50.106;10.996;2024-03-02T04:32:34;97617.71;;;7.66;67.89
77381;BME280;66439;50.106;10.996;2024-03-02T04:34:39;97623.98;;;7.67;68.00
77381;BME280;66439;50.106;10.996;2024-03-02T04:36:41;97622.39;;;7.67;68.01
77381;BME280;66439;50.106;10.996;2024-03-02T04:38:44;97621.21;;;7.66;67.96
77381;BME280;66439;50.106;10.996;2024-03-02T04:40:47;97621.45;;;7.67;68.06
77381;BME280;66439;50.106;10.996;2024-03-02T04:42:50;97619.27;;;7.68;68.24
77381;BME280;66439;50.106;10.996;2024-03-02T04:44:53;97622.16;;;7.69;67.90
77381;BME280;66439;50.106;10.996;2024-03-02T04:46:55;97624.14;;;7.67;67.82
77381;BME280;66439;50.106;10.996;2024-03-02T04:48:58;97622.37;;;7.64;67.81
77381;BME280;66439;50.106;10.996;2024-03-02T04:51:01;97624.79;;;7.62;68.02
77381;BME280;66439;50.106;10.996;2024-03-02T04:53:03;97631.89;;;7.60;68.14
77381;BME280;66439;50.106;10.996;2024-03-02T04:55:06;97631.70;;;7.57;68.06
77381;BME280;66439;50.106;10.996;2024-03-02T04:57:27;97630.80;;;7.54;68.03
77381;BME280;66439;50.106;10.996;2024-03-02T04:59:30;97632.73;;;7.53;68.06
77381;BME280;66439;50.106;10.996;2024-03-02T05:01:33;97631.11;;;7.53;68.14
77381;BME280;66439;50.106;10.996;2024-03-02T05:03:36;97632.71;;;7.55;68.11
77381;BME280;66439;50.106;10.996;2024-03-02T05:05:39;97635.23;;;7.55;68.16
77381;BME280;66439;50.106;10.996;2024-03-02T05:07:42;97635.64;;;7.56;68.28
77381;BME280;66439;50.106;10.996;2024-03-02T05:09:46;97639.96;;;7.56;68.11
77381;BME280;66439;50.106;10.996;2024-03-02T05:11:54;97640.24;;;7.56;68.09
77381;BME280;66439;50.106;10.996;2024-03-02T05:14:23;97644.15;;;7.56;68.15
77381;BME280;66439;50.106;10.996;2024-03-02T05:16:25;97642.64;;;7.55;68.18
77381;BME280;66439;50.106;10.996;2024-03-02T05:18:28;97647.92;;;7.56;68.16
77381;BME280;66439;50.106;10.996;2024-03-02T05:20:31;97641.55;;;7.56;68.19
77381;BME280;66439;50.106;10.996;2024-03-02T05:22:34;97644.43;;;7.55;67.93
77381;BME280;66439;50.106;10.996;2024-03-02T05:24:37;97645.92;;;7.54;68.10
77381;BME280;66439;50.106;10.996;2024-03-02T05:26:40;97644.06;;;7.54;67.88
77381;BME280;66439;50.106;10.996;2024-03-02T05:28:42;97647.70;;;7.53;68.03
77381;BME280;66439;50.106;10.996;2024-03-02T05:30:45;97648.87;;;7.52;67.96
77381;BME280;66439;50.106;10.996;2024-03-02T05:32:48;97648.77;;;7.50;67.97
77381;BME280;66439;50.106;10.996;2024-03-02T05:34:51;97648.06;;;7.49;68.05
77381;BME280;66439;50.106;10.996;2024-03-02T05:36:54;97647.44;;;7.51;67.98
77381;BME280;66439;50.106;10.996;2024-03-02T05:38:57;97652.02;;;7.54;67.92
77381;BME280;66439;50.106;10.996;2024-03-02T05:40:59;97653.54;;;7.55;68.03
77381;BME280;66439;50.106;10.996;2024-03-02T05:43:02;97654.58;;;7.58;68.10
77381;BME280;66439;50.106;10.996;2024-03-02T05:45:05;97652.55;;;7.58;68.11
77381;BME280;66439;50.106;10.996;2024-03-02T05:47:07;97658.00;;;7.59;68.21
77381;BME280;66439;50.106;10.996;2024-03-02T05:49:11;97659.11;;;7.58;68.13
77381;BME280;66439;50.106;10.996;2024-03-02T05:51:14;97657.29;;;7.57;68.09
77381;BME280;66439;50.106;10.996;2024-03-02T05:53:17;97659.80;;;7.55;68.04
77381;BME280;66439;50.106;10.996;2024-03-02T05:55:20;97658.27;;;7.53;68.03
77381;BME280;66439;50.106;10.996;2024-03-02T05:57:22;97665.27;;;7.52;68.05
77381;BME280;66439;50.106;10.996;2024-03-02T05:59:48;97664.64;;;7.50;68.10
77381;BME280;66439;50.106;10.996;2024-03-02T06:01:51;97664.90;;;7.48;68.04
77381;BME280;66439;50.106;10.996;2024-03-02T06:03:55;97664.48;;;7.46;68.00
77381;BME280;66439;50.106;10.996;2024-03-02T06:05:58;97663.08;;;7.44;67.98
77381;BME280;66439;50.106;10.996;2024-03-02T06:08:02;97660.14;;;7.43;68.07
77381;BME280;66439;50.106;10.996;2024-03-02T06:10:05;97662.55;;;7.42;68.28
77381;BME280;66439;50.106;10.996;2024-03-02T06:12:13;97663.27;;;7.43;68.15
77381;BME280;66439;50.106;10.996;2024-03-02T06:14:16;97665.69;;;7.45;68.29
77381;BME280;66439;50.106;10.996;2024-03-02T06:16:19;97666.41;;;7.47;68.40
77381;BME280;66439;50.106;10.996;2024-03-02T06:18:21;97661.48;;;7.49;68.37
77381;BME280;66439;50.106;10.996;2024-03-02T06:20:24;97665.24;;;7.50;68.28
77381;BME280;66439;50.106;10.996;2024-03-02T06:22:29;97667.21;;;7.51;68.45
77381;BME280;66439;50.106;10.996;2024-03-02T06:24:31;97669.37;;;7.52;68.33
77381;BME280;66439;50.106;10.996;2024-03-02T06:26:34;97668.20;;;7.51;68.40
77381;BME280;66439;50.106;10.996;2024-03-02T06:28:37;97669.95;;;7.51;68.25
77381;BME280;66439;50.106;10.996;2024-03-02T06:30:39;97674.20;;;7.51;68.50
77381;BME280;66439;50.106;10.996;2024-03-02T06:32:42;97672.14;;;7.52;68.37
77381;BME280;66439;50.106;10.996;2024-03-02T06:34:45;97673.64;;;7.51;68.57
77381;BME280;66439;50.106;10.996;2024-03-02T06:36:52;97675.96;;;7.51;68.58
77381;BME280;66439;50.106;10.996;2024-03-02T06:38:55;97675.83;;;7.51;68.52
77381;BME280;66439;50.106;10.996;2024-03-02T06:40:57;97672.95;;;7.51;68.54
77381;BME280;66439;50.106;10.996;2024-03-02T06:43:00;97672.52;;;7.53;68.40
77381;BME280;66439;50.106;10.996;2024-03-02T06:45:03;97671.57;;;7.57;68.58
77381;BME280;66439;50.106;10.996;2024-03-02T06:47:06;97674.98;;;7.61;68.56
77381;BME280;66439;50.106;10.996;2024-03-02T06:49:08;97674.04;;;7.63;68.62
77381;BME280;66439;50.106;10.996;2024-03-02T06:51:12;97676.27;;;7.65;68.60
77381;BME280;66439;50.106;10.996;2024-03-02T06:53:16;97674.92;;;7.66;68.58
77381;BME280;66439;50.106;10.996;2024-03-02T06:55:24;97674.14;;;7.67;68.65
77381;BME280;66439;50.106;10.996;2024-03-02T06:57:28;97676.48;;;7.68;68.45
77381;BME280;66439;50.106;10.996;2024-03-02T06:59:31;97676.27;;;7.69;68.46
77381;BME280;66439;50.106;10.996;2024-03-02T07:01:33;97678.85;;;7.69;68.34
77381;BME280;66439;50.106;10.996;2024-03-02T07:03:37;97680.16;;;7.70;68.47
77381;BME280;66439;50.106;10.996;2024-03-02T07:05:42;97682.85;;;7.70;68.54
77381;BME280;66439;50.106;10.996;2024-03-02T07:07:45;97682.23;;;7.69;68.43
77381;BME280;66439;50.106;10.996;2024-03-02T07:09:47;97683.38;;;7.68;68.55
77381;BME280;66439;50.106;10.996;2024-03-02T07:11:50;97690.79;;;7.68;68.50
77381;BME280;66439;50.106;10.996;2024-03-02T07:13:54;97687.23;;;7.70;68.56
77381;BME280;66439;50.106;10.996;2024-03-02T07:15:56;97687.79;;;7.72;68.57
77381;BME280;66439;50.106;10.996;2024-03-02T07:18:04;97690.48;;;7.75;68.63
77381;BME280;66439;50.106;10.996;2024-03-02T07:20:07;97687.09;;;7.76;68.67
77381;BME280;66439;50.106;10.996;2024-03-02T07:22:10;97685.27;;;7.78;68.79
77381;BME280;66439;50.106;10.996;2024-03-02T07:24:15;97688.56;;;7.82;68.78
77381;BME280;66439;50.106;10.996;2024-03-02T07:26:19;97690.64;;;7.84;68.75
77381;BME280;66439;50.106;10.996;2024-03-02T07:28:25;97692.70;;;7.86;68.65
77381;BME280;66439;50.106;10.996;2024-03-02T07:30:28;97695.72;;;7.87;68.81
77381;BME280;66439;50.106;10.996;2024-03-02T07:32:32;97695.86;;;7.89;68.58
77381;BME280;66439;50.106;10.996;2024-03-02T07:34:36;97694.08;;;7.90;68.62
77381;BME280;66439;50.106;10.996;2024-03-02T07:36:40;97695.59;;;7.91;68.52
77381;BME280;66439;50.106;10.996;2024-03-02T07:38:43;97697.61;;;7.92;68.48
77381;BME280;66439;50.106;10.996;2024-03-02T07:40:47;97698.46;;;7.93;68.63
77381;BME280;66439;50.106;10.996;2024-03-02T07:42:52;97698.23;;;7.95;68.63
77381;BME280;66439;50.106;10.996;2024-03-02T07:44:55;97702.22;;;8.00;68.60
77381;BME280;66439;50.106;10.996;2024-03-02T07:46:59;97702.30;;;8.05;68.53
77381;BME280;66439;50.106;10.996;2024-03-02T07:49:02;97699.16;;;8.10;68.70
77381;BME280;66439;50.106;10.996;2024-03-02T07:51:04;97706.98;;;8.15;68.66
77381;BME280;66439;50.106;10.996;2024-03-02T07:53:07;97707.67;;;8.21;68.70
77381;BME280;66439;50.106;10.996;2024-03-02T07:55:10;97703.27;;;8.26;68.81
77381;BME280;66439;50.106;10.996;2024-03-02T07:57:13;97706.67;;;8.32;68.65
77381;BME280;66439;50.106;10.996;2024-03-02T07:59:16;97709.67;;;8.36;68.74
77381;BME280;66439;50.106;10.996;2024-03-02T08:01:18;97708.36;;;8.40;68.71
77381;BME280;66439;50.106;10.996;2024-03-02T08:03:21;97709.08;;;8.42;68.58
77381;BME280;66439;50.106;10.996;2024-03-02T08:05:25;97713.05;;;8.46;68.72
77381;BME280;66439;50.106;10.996;2024-03-02T08:07:27;97711.36;;;8.49;68.64
77381;BME280;66439;50.106;10.996;2024-03-02T08:09:31;97711.55;;;8.53;68.52
77381;BME280;66439;50.106;10.996;2024-03-02T08:11:34;97710.67;;;8.58;68.56
77381;BME280;66439;50.106;10.996;2024-03-02T08:13:38;97711.57;;;8.64;68.54
77381;BME280;66439;50.106;10.996;2024-03-02T08:15:41;97707.13;;;8.71;68.46
77381;BME280;66439;50.106;10.996;2024-03-02T08:17:44;97707.80;;;8.80;68.55
77381;BME280;66439;50.106;10.996;2024-03-02T08:19:52;97707.34;;;8.88;68.51
77381;BME280;66439;50.106;10.996;2024-03-02T08:21:55;97707.70;;;8.96;68.43
77381;BME280;66439;50.106;10.996;2024-03-02T08:23:58;97705.41;;;9.04;68.57
77381;BME280;66439;50.106;10.996;2024-03-02T08:26:02;97711.80;;;9.12;68.26
77381;BME280;66439;50.106;10.996;2024-03-02T08:28:05;97711.45;;;9.19;68.31
77381;BME280;66439;50.106;10.996;2024-03-02T08:30:09;97712.17;;;9.24;68.19
77381;BME280;66439;50.106;10.996;2024-03-02T08:32:13;97710.79;;;9.30;68.11
77381;BME280;66439;50.106;10.996;2024-03-02T08:34:15;97708.98;;;9.35;67.98
77381;BME280;66439;50.106;10.996;2024-03-02T08:36:18;97699.36;;;9.39;67.85
77381;BME280;66439;50.106;10.996;2024-03-02T08:38:22;97699.12;;;9.43;67.95
77381;BME280;66439;50.106;10.996;2024-03-02T08:40:25;97701.55;;;9.47;67.73
77381;BME280;66439;50.106;10.996;2024-03-02T08:42:28;97701.50;;;9.52;67.76
77381;BME280;66439;50.106;10.996;2024-03-02T08:44:31;97698.38;;;9.58;67.62
77381;BME280;66439;50.106;10.996;2024-03-02T08:46:36;97706.35;;;9.66;67.47
77381;BME280;66439;50.106;10.996;2024-03-02T08:48:39;97707.13;;;9.73;67.55
77381;BME280;66439;50.106;10.996;2024-03-02T08:50:42;97705.42;;;9.80;67.53
77381;BME280;66439;50.106;10.996;2024-03-02T08:52:45;97707.31;;;9.87;67.41
77381;BME280;66439;50.106;10.996;2024-03-02T08:54:47;97708.25;;;9.94;67.24
77381;BME280;66439;50.106;10.996;2024-03-02T08:56:50;97710.91;;;10.01;67.13
77381;BME280;66439;50.106;10.996;2024-03-02T08:58:53;97709.52;;;10.06;66.81
77381;BME280;66439;50.106;10.996;2024-03-02T09:00:56;97713.41;;;10.13;67.02
77381;BME280;66439;50.106;10.996;2024-03-02T09:02:58;97706.62;;;10.18;66.75
77381;BME280;66439;50.106;10.996;2024-03-02T09:05:01;97706.45;;;10.22;66.67
77381;BME280;66439;50.106;10.996;2024-03-02T09:07:04;97707.49;;;10.26;66.43
77381;BME280;66439;50.106;10.996;2024-03-02T09:09:07;97707.05;;;10.29;66.30
77381;BME280;66439;50.106;10.996;2024-03-02T09:11:10;97706.64;;;10.31;66.28
77381;BME280;66439;50.106;10.996;2024-03-02T09:13:13;97707.33;;;10.34;66.16
77381;BME280;66439;50.106;10.996;2024-03-02T09:15:16;97706.77;;;10.35;66.11
77381;BME280;66439;50.106;10.996;2024-03-02T09:17:19;97710.14;;;10.36;65.90
77381;BME280;66439;50.106;10.996;2024-03-02T09:19:22;97704.99;;;10.36;65.76
77381;BME280;66439;50.106;10.996;2024-03-02T09:21:25;97710.92;;;10.37;65.66
77381;BME280;66439;50.106;10.996;2024-03-02T09:23:28;97713.50;;;10.39;65.61
77381;BME280;66439;50.106;10.996;2024-03-02T09:25:31;97711.98;;;10.42;65.54
77381;BME280;66439;50.106;10.996;2024-03-02T09:27:38;97712.22;;;10.46;65.54
77381;BME280;66439;50.106;10.996;2024-03-02T09:29:40;97713.39;;;10.49;65.62
77381;BME280;66439;50.106;10.996;2024-03-02T09:31:43;97710.00;;;10.52;65.49
77381;BME280;66439;50.106;10.996;2024-03-02T09:33:46;97705.34;;;10.55;65.70
77381;BME280;66439;50.106;10.996;2024-03-02T09:35:49;97709.76;;;10.57;65.58
77381;BME280;66439;50.106;10.996;2024-03-02T09:37:53;97711.63;;;10.60;65.64
77381;BME280;66439;50.106;10.996;2024-03-02T09:39:56;97714.16;;;10.63;65.40
77381;BME280;66439;50.106;10.996;2024-03-02T09:41:59;97708.42;;;10.64;65.57
77381;BME280;66439;50.106;10.996;2024-03-02T09:44:05;97711.41;;;10.66;65.46
77381;BME280;66439;50.106;10.996;2024-03-02T09:46:09;97711.04;;;10.67;65.49
77381;BME280;66439;50.106;10.996;2024-03-02T09:48:12;97712.30;;;10.68;65.46
77381;BME280;66439;50.106;10.996;2024-03-02T09:50:15;97714.04;;;10.71;65.54
77381;BME280;66439;50.106;10.996;2024-03-02T09:52:18;97711.27;;;10.74;65.41
77381;BME280;66439;50.106;10.996;2024-03-02T09:54:20;97709.38;;;10.75;65.32
77381;BME280;66439;50.106;10.996;2024-03-02T09:56:25;97709.53;;;10.77;65.33
77381;BME280;66439;50.106;10.996;2024-03-02T09:58:27;97711.79;;;10.80;65.35
77381;BME280;66439;50.106;10.996;2024-03-02T10:00:30;97705.73;;;10.85;65.19
77381;BME280;66439;50.106;10.996;2024-03-02T10:02:33;97702.80;;;10.90;64.97
77381;BME280;66439;50.106;10.996;2024-03-02T10:04:35;97696.61;;;10.95;64.99
77381;BME280;66439;50.106;10.996;2024-03-02T10:06:38;97694.09;;;10.99;64.99
77381;BME280;66439;50.106;10.996;2024-03-02T10:08:43;97691.74;;;11.04;64.93
77381;BME280;66439;50.106;10.996;2024-03-02T10:10:46;97695.35;;;11.10;64.78
77381;BME280;66439;50.106;10.996;2024-03-02T10:13:03;97695.91;;;11.15;64.81
77381;BME280;66439;50.106;10.996;2024-03-02T10:15:06;97700.30;;;11.20;64.71
77381;BME280;66439;50.106;10.996;2024-03-02T10:17:13;97700.05;;;11.23;64.58
77381;BME280;66439;50.106;10.996;2024-03-02T10:19:16;97698.67;;;11.27;64.52
77381;BME280;66439;50.106;10.996;2024-03-02T10:21:20;97700.80;;;11.27;64.28
77381;BME280;66439;50.106;10.996;2024-03-02T10:23:26;97703.56;;;11.29;64.33
77381;BME280;66439;50.106;10.996;2024-03-02T10:25:30;97701.05;;;11.29;64.34
77381;BME280;66439;50.106;10.996;2024-03-02T10:27:50;97699.35;;;11.31;64.06
77381;BME280;66439;50.106;10.996;2024-03-02T10:29:53;97692.58;;;11.32;64.14
77381;BME280;66439;50.106;10.996;2024-03-02T10:31:56;97690.26;;;11.34;63.98
77381;BME280;66439;50.106;10.996;2024-03-02T10:34:01;97690.40;;;11.35;63.92
77381;BME280;66439;50.106;10.996;2024-03-02T10:36:04;97687.73;;;11.36;63.85
77381;BME280;66439;50.106;10.996;2024-03-02T10:38:07;97689.65;;;11.38;63.90
77381;BME280;66439;50.106;10.996;2024-03-02T10:40:13;97694.31;;;11.39;63.86
77381;BME280;66439;50.106;10.996;2024-03-02T10:42:17;97693.19;;;11.41;63.93
77381;BME280;66439;50.106;10.996;2024-03-02T10:44:22;97692.73;;;11.44;64.03
77381;BME280;66439;50.106;10.996;2024-03-02T10:46:29;97693.23;;;11.48;63.68
77381;BME280;66439;50.106;10.996;2024-03-02T10:48:33;97690.30;;;11.51;63.62
77381;BME280;66439;50.106;10.996;2024-03-02T10:50:38;97691.57;;;11.54;63.58
77381;BME280;66439;50.106;10.996;2024-03-02T10:52:40;97687.70;;;11.56;63.45
77381;BME280;66439;50.106;10.996;2024-03-02T10:54:43;97687.19;;;11.59;63.47